createdAt,value
2023-03-11T00:01:34.016Z,0.15
2023-03-11T00:04:02.177Z,0.07
2023-03-11T00:06:30.569Z,0.08
2023-03-11T00:09:00.973Z,0.03
2023-03-11T00:11:29.189Z,-0.03
2023-03-11T00:13:59.418Z,-0.07
2023-03-11T00:16:29.238Z,-0.09
2023-03-11T00:18:58.130Z,-0.09
2023-03-11T00:21:26.264Z,-0.12
2023-03-11T00:23:54.453Z,-0.10
2023-03-11T00:26:22.659Z,-0.12
2023-03-11T00:28:50.793Z,-0.10
2023-03-11T00:31:19.241Z,-0.09
2023-03-11T00:33:51.010Z,-0.08
2023-03-11T00:36:25.035Z,-0.04
2023-03-11T00:38:53.411Z,-0.15
2023-03-11T00:41:21.706Z,-0.17
2023-03-11T00:43:49.972Z,-0.23
2023-03-11T00:46:18.424Z,-0.20
2023-03-11T00:48:51.545Z,-0.26
2023-03-11T00:51:22.045Z,-0.30
2023-03-11T00:53:53.705Z,-0.38
2023-03-11T00:56:22.359Z,-0.39
2023-03-11T00:58:53.626Z,-0.40
2023-03-11T01:01:26.091Z,-0.42
2023-03-11T01:03:55.589Z,-0.45
2023-03-11T01:06:35.790Z,-0.43
2023-03-11T01:09:07.605Z,-0.31
2023-03-11T01:11:38.394Z,-0.32
2023-03-11T01:14:10.719Z,-0.39
2023-03-11T01:19:29.003Z,-0.29
2023-03-11T01:21:57.186Z,-0.34
2023-03-11T01:24:25.327Z,-0.47
2023-03-11T01:26:56.111Z,-0.41
2023-03-11T01:29:26.398Z,-0.51
2023-03-11T01:31:55.203Z,-0.63
2023-03-11T01:34:29.462Z,-0.67
2023-03-11T01:37:02.075Z,-0.70
2023-03-11T01:39:32.777Z,-0.69
2023-03-11T01:42:01.115Z,-0.72
2023-03-11T01:44:29.564Z,-0.74
2023-03-11T01:47:33.845Z,-0.68
2023-03-11T01:50:06.169Z,-0.57
2023-03-11T01:52:34.966Z,-0.43
2023-03-11T01:55:03.235Z,-0.34
2023-03-11T01:57:34.754Z,-0.25
2023-03-11T02:00:09.012Z,-0.19
2023-03-11T02:02:46.859Z,-0.18
2023-03-11T02:05:18.016Z,-0.17
2023-03-11T02:07:46.540Z,-0.17
2023-03-11T02:10:18.181Z,-0.17
2023-03-11T02:12:51.361Z,-0.14
2023-03-11T02:15:29.301Z,-0.18
2023-03-11T02:17:59.617Z,-0.24
2023-03-11T02:20:39.998Z,-0.25
2023-03-11T02:23:14.909Z,-0.35
2023-03-11T02:25:53.513Z,-0.45
2023-03-11T02:28:28.507Z,-0.58
2023-03-11T02:30:58.157Z,-0.69
2023-03-11T02:33:33.423Z,-0.78
2023-03-11T02:38:40.013Z,-0.94
2023-03-11T02:41:11.388Z,-0.92
2023-03-11T02:43:45.835Z,-0.98
2023-03-11T02:46:20.168Z,-0.97
2023-03-11T02:48:49.760Z,-0.93
2023-03-11T02:51:20.480Z,-0.83
2023-03-11T02:53:54.131Z,-0.85
2023-03-11T02:56:24.664Z,-0.82
2023-03-11T02:58:54.129Z,-0.77
2023-03-11T03:01:22.456Z,-0.79
2023-03-11T03:03:52.008Z,-0.84
2023-03-11T03:06:20.312Z,-0.96
2023-03-11T03:08:53.927Z,-1.06
2023-03-11T03:11:22.265Z,-1.08
2023-03-11T03:13:50.942Z,-1.17
2023-03-11T03:16:19.381Z,-1.26
2023-03-11T03:18:49.314Z,-1.30
2023-03-11T03:21:17.565Z,-1.28
2023-03-11T03:23:51.159Z,-1.37
2023-03-11T03:26:20.589Z,-1.44
2023-03-11T03:29:07.216Z,-1.47
2023-03-11T03:31:35.593Z,-1.50
2023-03-11T03:34:06.286Z,-1.61
2023-03-11T03:36:34.523Z,-1.65
2023-03-11T03:39:05.941Z,-1.67
2023-03-11T03:41:38.846Z,-1.61
2023-03-11T03:44:09.077Z,-1.57
2023-03-11T03:46:38.574Z,-1.60
2023-03-11T03:49:09.318Z,-1.53
2023-03-11T03:51:40.530Z,-1.54
2023-03-11T03:54:23.765Z,-1.54
2023-03-11T03:56:53.184Z,-1.50
2023-03-11T03:59:22.425Z,-1.51
2023-03-11T04:01:56.044Z,-1.48
2023-03-11T04:04:25.546Z,-1.46
2023-03-11T04:09:44.656Z,-1.48
2023-03-11T04:12:18.054Z,-1.51
2023-03-11T04:14:47.451Z,-1.55
2023-03-11T04:17:20.854Z,-1.59
2023-03-11T04:19:50.498Z,-1.64
2023-03-11T04:22:18.616Z,-1.63
2023-03-11T04:24:49.787Z,-1.61
2023-03-11T04:27:20.218Z,-1.68
2023-03-11T04:29:48.852Z,-1.57
2023-03-11T04:32:20.412Z,-1.56
2023-03-11T04:34:53.307Z,-1.57
2023-03-11T04:37:23.860Z,-1.59
2023-03-11T04:39:53.335Z,-1.67
2023-03-11T04:42:23.679Z,-1.70
2023-03-11T04:44:55.082Z,-1.67
2023-03-11T04:47:25.614Z,-1.75
2023-03-11T04:49:56.288Z,-1.72
2023-03-11T04:52:25.254Z,-1.77
2023-03-11T04:54:54.340Z,-1.76
2023-03-11T04:57:26.440Z,-1.75
2023-03-11T04:59:58.543Z,-1.75
2023-03-11T05:02:30.627Z,-1.79
2023-03-11T05:05:01.653Z,-1.89
2023-03-11T05:07:30.319Z,-1.89
2023-03-11T05:09:58.597Z,-1.95
2023-03-11T05:12:30.653Z,-1.94
2023-03-11T05:14:59.712Z,-2.06
2023-03-11T05:17:30.332Z,-2.16
2023-03-11T05:19:59.332Z,-2.27
2023-03-11T05:22:32.900Z,-2.16
2023-03-11T05:25:01.839Z,-2.17
2023-03-11T05:27:34.187Z,-2.24
2023-03-11T05:30:06.550Z,-2.33
2023-03-11T05:32:38.475Z,-2.46
2023-03-11T05:35:10.731Z,-2.52
2023-03-11T05:37:39.696Z,-2.50
2023-03-11T05:40:11.175Z,-2.67
2023-03-11T05:42:42.169Z,-2.77
2023-03-11T05:45:12.976Z,-2.80
2023-03-11T05:47:45.285Z,-2.84
2023-03-11T05:50:18.132Z,-2.92
2023-03-11T05:52:50.144Z,-2.94
2023-03-11T05:55:18.815Z,-2.95
2023-03-11T05:57:52.267Z,-3.01
2023-03-11T06:00:24.095Z,-3.06
2023-03-11T06:02:54.897Z,-3.12
2023-03-11T06:05:23.279Z,-3.08
2023-03-11T06:07:58.501Z,-3.03
2023-03-11T06:10:26.852Z,-3.03
2023-03-11T06:12:56.678Z,-3.02
2023-03-11T06:15:34.164Z,-2.96
2023-03-11T06:18:02.416Z,-2.84
2023-03-11T06:20:30.664Z,-2.72
2023-03-11T06:22:58.893Z,-2.57
2023-03-11T06:25:27.555Z,-2.47
2023-03-11T06:27:59.521Z,-2.33
2023-03-11T06:30:30.234Z,-2.10
2023-03-11T06:33:11.846Z,-1.95
2023-03-11T06:35:42.510Z,-1.69
2023-03-11T06:38:13.196Z,-1.45
2023-03-11T06:40:41.581Z,-1.47
2023-03-11T06:43:13.726Z,-1.13
2023-03-11T06:45:46.386Z,-0.99
2023-03-11T06:48:19.641Z,-0.81
2023-03-11T06:50:54.942Z,-0.65
2023-03-11T06:53:29.820Z,-0.46
2023-03-11T06:56:00.569Z,-0.27
2023-03-11T06:58:31.371Z,0.19
2023-03-11T07:01:02.938Z,0.70
2023-03-11T07:03:32.207Z,1.07
2023-03-11T07:06:00.713Z,1.79
2023-03-11T07:08:30.659Z,1.94
2023-03-11T07:11:02.722Z,2.72
2023-03-11T07:13:34.088Z,2.94
2023-03-11T07:16:05.048Z,3.09
2023-03-11T07:18:33.666Z,3.71
2023-03-11T07:21:06.231Z,4.14
2023-03-11T07:23:37.211Z,4.61
2023-03-11T07:26:05.579Z,5.07
2023-03-11T07:28:35.288Z,5.55
2023-03-11T07:31:10.847Z,5.60
2023-03-11T07:33:39.400Z,5.63
2023-03-11T07:39:41.195Z,6.22
2023-03-11T07:42:09.616Z,6.59
2023-03-11T07:44:38.528Z,7.16
2023-03-11T07:47:07.114Z,7.24
2023-03-11T07:49:42.267Z,8.42
2023-03-11T07:52:10.378Z,8.21
2023-03-11T07:54:42.940Z,8.38
2023-03-11T07:57:17.031Z,8.20
2023-03-11T07:59:45.555Z,8.87
2023-03-11T08:02:13.690Z,8.70
2023-03-11T08:04:42.353Z,8.47
2023-03-11T08:07:10.919Z,9.42
2023-03-11T08:09:39.051Z,8.87
2023-03-11T08:12:09.925Z,8.71
2023-03-11T08:14:40.467Z,8.62
2023-03-11T08:17:08.542Z,8.71
2023-03-11T08:19:37.148Z,9.34
2023-03-11T08:22:06.258Z,9.44
2023-03-11T08:24:34.680Z,9.45
2023-03-11T08:27:06.124Z,10.23
2023-03-11T08:29:37.618Z,10.92
2023-03-11T08:32:07.187Z,10.30
2023-03-11T08:34:35.749Z,11.11
2023-03-11T08:37:04.456Z,10.92
2023-03-11T08:39:32.972Z,10.81
2023-03-11T08:42:04.053Z,10.32
2023-03-11T08:44:32.604Z,11.17
2023-03-11T08:47:02.547Z,12.03
2023-03-11T08:49:31.035Z,12.51
2023-03-11T08:52:03.623Z,12.14
2023-03-11T08:54:32.937Z,12.02
2023-03-11T08:57:05.015Z,11.18
2023-03-11T08:59:37.713Z,10.13
2023-03-11T09:02:11.514Z,10.68
2023-03-11T09:04:39.579Z,10.15
2023-03-11T09:07:08.192Z,10.96
2023-03-11T09:09:36.352Z,10.75
2023-03-11T09:12:05.254Z,11.63
2023-03-11T09:14:33.919Z,11.26
2023-03-11T09:17:02.097Z,12.11
2023-03-11T09:19:32.292Z,11.42
2023-03-11T09:22:01.476Z,9.04
2023-03-11T09:24:34.487Z,8.42
2023-03-11T09:27:05.359Z,9.46
2023-03-11T09:29:36.241Z,10.54
2023-03-11T09:32:04.982Z,11.70
2023-03-11T09:34:34.563Z,12.05
2023-03-11T09:37:05.329Z,12.13
2023-03-11T09:39:33.978Z,13.87
2023-03-11T09:42:08.010Z,13.15
2023-03-11T09:44:42.578Z,10.73
2023-03-11T09:47:40.005Z,11.95
2023-03-11T09:50:24.444Z,13.41
2023-03-11T09:53:05.422Z,13.23
2023-03-11T09:55:40.024Z,13.11
2023-03-11T09:58:15.910Z,13.39
2023-03-11T10:00:44.573Z,12.92
2023-03-11T10:03:28.475Z,10.86
2023-03-11T10:06:07.507Z,10.19
2023-03-11T10:08:41.820Z,11.18
2023-03-11T10:11:21.553Z,12.23
2023-03-11T10:14:03.164Z,12.45
2023-03-11T10:16:38.653Z,10.52
2023-03-11T10:19:18.029Z,10.32
2023-03-11T10:21:55.662Z,8.95
2023-03-11T10:24:46.102Z,8.54
2023-03-11T10:27:19.382Z,7.80
2023-03-11T10:30:00.146Z,6.80
2023-03-11T10:32:39.120Z,9.72
2023-03-11T10:35:19.561Z,10.31
2023-03-11T10:37:54.546Z,9.25
2023-03-11T10:40:33.308Z,7.98
2023-03-11T10:43:04.582Z,6.87
2023-03-11T10:45:41.690Z,6.27
2023-03-11T10:48:11.988Z,6.39
2023-03-11T10:50:56.027Z,6.17
2023-03-11T10:53:25.412Z,6.45
2023-03-11T10:55:59.415Z,7.34
2023-03-11T10:58:32.022Z,9.68
2023-03-11T11:01:03.383Z,12.56
2023-03-11T11:03:37.059Z,11.82
2023-03-11T11:06:08.896Z,11.17
2023-03-11T11:08:38.831Z,9.30
2023-03-11T11:11:22.755Z,8.69
2023-03-11T11:13:59.157Z,7.46
2023-03-11T11:16:28.416Z,7.36
2023-03-11T11:19:05.525Z,6.31
2023-03-11T11:21:37.242Z,5.98
2023-03-11T11:24:18.479Z,6.22
2023-03-11T11:27:04.921Z,6.04
2023-03-11T11:29:36.410Z,5.71
2023-03-11T11:32:20.591Z,6.14
2023-03-11T11:35:00.151Z,7.39
2023-03-11T11:37:32.836Z,9.51
2023-03-11T11:40:11.471Z,11.37
2023-03-11T11:42:41.517Z,11.81
2023-03-11T11:45:16.911Z,12.16
2023-03-11T11:47:49.885Z,13.86
2023-03-11T11:50:30.083Z,13.37
2023-03-11T11:53:07.307Z,11.75
2023-03-11T11:55:41.094Z,10.46
2023-03-11T11:58:12.604Z,9.22
2023-03-11T12:00:51.109Z,8.55
2023-03-11T12:03:41.961Z,7.92
2023-03-11T12:06:20.909Z,7.17
2023-03-11T12:09:05.999Z,7.10
2023-03-11T12:12:02.874Z,7.18
2023-03-11T12:15:02.297Z,6.84
2023-03-11T12:17:32.920Z,6.85
2023-03-11T12:20:08.753Z,6.73
2023-03-11T12:22:55.936Z,6.67
2023-03-11T12:25:35.443Z,6.79
2023-03-11T12:28:17.086Z,6.89
2023-03-11T12:30:50.485Z,7.00
2023-03-11T12:33:20.053Z,6.90
2023-03-11T12:35:56.296Z,7.40
2023-03-11T12:40:49.102Z,7.51
2023-03-11T12:43:30.490Z,7.12
2023-03-11T12:46:02.755Z,7.23
2023-03-11T12:48:37.227Z,7.40
2023-03-11T12:51:06.326Z,7.41
2023-03-11T12:53:46.179Z,6.91
2023-03-11T12:56:35.438Z,7.60
2023-03-11T12:59:24.656Z,8.04
2023-03-11T13:02:14.461Z,7.73
2023-03-11T13:04:57.336Z,7.79
2023-03-11T13:07:41.341Z,7.38
2023-03-11T13:10:21.486Z,7.23
2023-03-11T13:12:53.067Z,7.03
2023-03-11T13:15:45.796Z,6.91
2023-03-11T13:18:25.115Z,6.75
2023-03-11T13:20:58.324Z,6.56
2023-03-11T13:23:29.621Z,6.38
2023-03-11T13:26:24.793Z,6.58
2023-03-11T13:29:30.218Z,6.58
2023-03-11T13:32:14.645Z,6.38
2023-03-11T13:34:52.379Z,6.53
2023-03-11T13:37:31.426Z,6.47
2023-03-11T13:40:14.302Z,6.74
2023-03-11T13:42:47.509Z,6.71
2023-03-11T13:45:28.956Z,6.52
2023-03-11T13:48:01.035Z,6.20
2023-03-11T13:50:36.710Z,5.97
2023-03-11T13:53:10.254Z,5.69
2023-03-11T13:55:43.016Z,5.64
2023-03-11T13:58:21.180Z,5.66
2023-03-11T14:00:55.430Z,5.83
2023-03-11T14:03:25.596Z,5.57
2023-03-11T14:05:59.605Z,5.43
2023-03-11T14:08:29.603Z,5.63
2023-03-11T14:11:02.165Z,5.51
2023-03-11T14:13:32.239Z,5.42
2023-03-11T14:16:10.031Z,5.57
2023-03-11T14:18:40.814Z,5.29
2023-03-11T14:21:15.264Z,5.40
2023-03-11T14:23:46.210Z,5.26
2023-03-11T14:26:16.934Z,5.64
2023-03-11T14:28:47.982Z,5.64
2023-03-11T14:31:30.607Z,5.63
2023-03-11T14:34:04.530Z,5.30
2023-03-11T14:36:42.513Z,5.00
2023-03-11T14:39:31.556Z,4.86
2023-03-11T14:42:08.662Z,4.98
2023-03-11T14:44:41.627Z,5.12
2023-03-11T14:47:21.596Z,5.21
2023-03-11T14:49:54.337Z,4.87
2023-03-11T14:52:32.411Z,4.60
2023-03-11T14:55:05.692Z,4.56
2023-03-11T14:57:39.394Z,4.54
2023-03-11T15:00:12.182Z,4.50
2023-03-11T15:02:56.982Z,4.46
2023-03-11T15:05:36.317Z,4.32
2023-03-11T15:08:07.780Z,4.25
2023-03-11T15:10:37.306Z,4.15
2023-03-11T15:13:16.229Z,4.06
2023-03-11T15:15:57.424Z,4.14
2023-03-11T15:18:32.014Z,4.00
2023-03-11T15:21:08.782Z,4.02
2023-03-11T15:23:37.717Z,4.13
2023-03-11T15:26:07.205Z,4.28
2023-03-11T15:28:39.211Z,4.05
2023-03-11T15:31:32.457Z,3.97
2023-03-11T15:34:25.296Z,3.97
2023-03-11T15:37:03.206Z,3.86
2023-03-11T15:39:46.690Z,3.97
2023-03-11T15:42:26.578Z,3.86
2023-03-11T15:45:05.195Z,3.97
2023-03-11T15:47:35.991Z,3.95
2023-03-11T15:50:24.016Z,3.87
2023-03-11T15:52:55.069Z,3.66
2023-03-11T15:55:27.298Z,3.45
2023-03-11T15:58:01.615Z,3.31
2023-03-11T16:00:30.583Z,3.17
2023-03-11T16:02:58.966Z,2.98
2023-03-11T16:05:29.956Z,2.92
2023-03-11T16:07:58.334Z,2.89
2023-03-11T16:10:32.336Z,2.92
2023-03-11T16:13:00.529Z,2.96
2023-03-11T16:15:31.352Z,3.05
2023-03-11T16:18:01.515Z,3.06
2023-03-11T16:20:35.382Z,3.09
2023-03-11T16:23:04.232Z,3.10
2023-03-11T16:25:34.966Z,3.13
2023-03-11T16:28:06.072Z,3.10
2023-03-11T16:30:54.162Z,3.06
2023-03-11T16:33:22.586Z,2.98
2023-03-11T16:35:52.381Z,2.98
2023-03-11T16:38:23.080Z,2.57
2023-03-11T16:40:57.968Z,2.79
2023-03-11T16:43:27.099Z,2.66
2023-03-11T16:45:55.913Z,2.60
2023-03-11T16:48:26.330Z,2.52
2023-03-11T16:50:55.748Z,2.47
2023-03-11T16:53:25.335Z,2.41
2023-03-11T16:55:56.230Z,2.36
2023-03-11T16:58:26.733Z,2.32
2023-03-11T17:00:55.531Z,2.23
2023-03-11T17:03:25.957Z,2.11
2023-03-11T17:06:01.816Z,2.01
2023-03-11T17:08:30.072Z,1.99
2023-03-11T17:11:00.731Z,1.95
2023-03-11T17:13:28.952Z,1.90
2023-03-11T17:16:00.903Z,1.82
2023-03-11T17:18:29.417Z,1.69
2023-03-11T17:20:57.808Z,1.61
2023-03-11T17:23:27.386Z,1.52
2023-03-11T17:25:55.760Z,1.47
2023-03-11T17:28:23.942Z,1.31
2023-03-11T17:30:52.305Z,1.17
2023-03-11T17:33:22.858Z,1.12
2023-03-11T17:35:51.824Z,1.00
2023-03-11T17:41:48.161Z,0.90
2023-03-11T17:44:19.002Z,0.92
2023-03-11T17:46:47.354Z,0.94
2023-03-11T17:49:16.853Z,1.02
2023-03-11T17:51:47.367Z,0.82
2023-03-11T17:54:15.558Z,0.68
2023-03-11T17:56:44.227Z,0.58
2023-03-11T17:59:17.964Z,0.45
2023-03-11T18:01:46.359Z,0.36
2023-03-11T18:04:16.876Z,0.46
2023-03-11T18:06:47.605Z,0.34
2023-03-11T18:09:17.004Z,0.21
2023-03-11T18:11:48.549Z,0.25
2023-03-11T18:14:18.118Z,0.18
2023-03-11T18:16:47.082Z,0.12
2023-03-11T18:19:15.398Z,0.17
2023-03-11T18:21:44.708Z,0.29
2023-03-11T18:24:13.051Z,0.43
2023-03-11T18:26:41.360Z,0.46
2023-03-11T18:29:09.585Z,0.50
2023-03-11T18:31:40.974Z,0.40
2023-03-11T18:34:13.638Z,0.39
2023-03-11T18:36:44.600Z,0.29
2023-03-11T18:39:13.778Z,0.29
2023-03-11T18:41:42.891Z,0.21
2023-03-11T18:44:13.179Z,0.03
2023-03-11T18:46:43.344Z,0.07
2023-03-11T18:49:15.041Z,-0.02
2023-03-11T18:51:43.640Z,0.05
2023-03-11T18:54:13.902Z,0.14
2023-03-11T18:56:47.908Z,-0.03
2023-03-11T18:59:16.192Z,0.05
2023-03-11T19:01:50.698Z,0.09
2023-03-11T19:04:19.062Z,0.01
2023-03-11T19:06:48.321Z,-0.09
2023-03-11T19:09:19.560Z,-0.06
2023-03-11T19:11:48.129Z,-0.20
2023-03-11T19:14:16.715Z,-0.54
2023-03-11T19:16:51.268Z,-0.53
2023-03-11T19:19:22.083Z,-0.63
2023-03-11T19:21:52.898Z,-0.78
2023-03-11T19:24:21.480Z,-0.91
2023-03-11T19:26:52.470Z,-0.97
2023-03-11T19:29:23.844Z,-0.88
2023-03-11T19:31:53.650Z,-0.85
2023-03-11T19:34:22.496Z,-0.98
2023-03-11T19:36:51.088Z,-1.09
2023-03-11T19:39:22.223Z,-1.21
2023-03-11T19:41:52.923Z,-1.30
2023-03-11T19:44:23.614Z,-1.38
2023-03-11T19:46:53.486Z,-1.41
2023-03-11T19:49:22.069Z,-1.52
2023-03-11T19:51:51.757Z,-1.53
2023-03-11T19:54:20.884Z,-1.59
2023-03-11T19:56:51.636Z,-1.65
2023-03-11T19:59:38.509Z,-1.72
2023-03-11T20:02:14.034Z,-1.76
2023-03-11T20:04:43.341Z,-1.81
2023-03-11T20:07:12.122Z,-1.84
2023-03-11T20:09:42.707Z,-1.93
2023-03-11T20:12:13.706Z,-1.94
2023-03-11T20:14:42.241Z,-2.01
2023-03-11T20:17:10.666Z,-2.08
2023-03-11T20:19:42.674Z,-2.18
2023-03-11T20:22:10.891Z,-2.17
2023-03-11T20:24:41.483Z,-2.22
2023-03-11T20:27:09.766Z,-2.27
2023-03-11T20:29:38.049Z,-2.33
2023-03-11T20:32:06.740Z,-2.39
2023-03-11T20:34:35.320Z,-2.42
2023-03-11T20:37:32.070Z,-2.44
2023-03-11T20:40:00.545Z,-2.50
2023-03-11T20:42:28.731Z,-2.52
2023-03-11T20:44:56.960Z,-2.51
2023-03-11T20:47:25.449Z,-2.52
2023-03-11T20:49:53.902Z,-2.51
2023-03-11T20:52:24.590Z,-2.58
2023-03-11T20:54:54.303Z,-2.57
2023-03-11T20:57:25.445Z,-2.33
2023-03-11T20:59:53.907Z,-2.46
2023-03-11T21:02:24.549Z,-2.51
2023-03-11T21:04:57.592Z,-2.51
2023-03-11T21:07:28.091Z,-2.56
2023-03-11T21:09:58.081Z,-2.64
2023-03-11T21:12:31.136Z,-2.72
2023-03-11T21:15:02.232Z,-2.80
2023-03-11T21:17:34.139Z,-2.88
2023-03-11T21:20:02.536Z,-2.90
2023-03-11T21:22:31.400Z,-2.93
2023-03-11T21:25:01.130Z,-3.00
2023-03-11T21:27:32.364Z,-3.00
2023-03-11T21:30:03.799Z,-3.09
2023-03-11T21:32:32.750Z,-2.99
2023-03-11T21:35:02.302Z,-3.06
2023-03-11T21:37:30.867Z,-2.90
2023-03-11T21:40:03.803Z,-2.88
2023-03-11T21:42:32.304Z,-2.98
2023-03-11T21:45:01.120Z,-2.95
2023-03-11T21:47:29.480Z,-3.03
2023-03-11T21:49:57.772Z,-3.06
2023-03-11T21:52:26.693Z,-3.10
2023-03-11T21:54:56.556Z,-3.22
2023-03-11T21:57:26.326Z,-3.33
2023-03-11T21:59:54.650Z,-3.37
2023-03-11T22:02:25.352Z,-3.62
2023-03-11T22:04:53.658Z,-3.54
2023-03-11T22:07:22.269Z,-3.57
2023-03-11T22:09:53.779Z,-3.65
2023-03-11T22:12:22.229Z,-3.68
2023-03-11T22:14:52.041Z,-3.70
2023-03-11T22:17:23.069Z,-3.73
2023-03-11T22:19:51.753Z,-3.77
2023-03-11T22:22:21.846Z,-3.78
2023-03-11T22:24:50.740Z,-3.82
2023-03-11T22:27:19.360Z,-3.85
2023-03-11T22:29:47.653Z,-3.88
2023-03-11T22:32:17.267Z,-3.91
2023-03-11T22:34:45.424Z,-3.93
2023-03-11T22:37:13.618Z,-4.05
2023-03-11T22:39:44.613Z,-3.98
2023-03-11T22:42:12.926Z,-4.02
2023-03-11T22:44:41.360Z,-4.01
2023-03-11T22:47:09.525Z,-4.08
2023-03-11T22:49:39.662Z,-4.08
2023-03-11T22:52:07.860Z,-4.10
2023-03-11T22:54:38.129Z,-4.12
2023-03-11T22:57:06.806Z,-4.13
2023-03-11T22:59:37.315Z,-4.12
2023-03-11T23:02:05.486Z,-4.12
2023-03-11T23:04:35.309Z,-4.15
2023-03-11T23:07:05.371Z,-4.17
2023-03-11T23:09:35.053Z,-4.24
2023-03-11T23:12:03.948Z,-4.30
2023-03-11T23:14:44.229Z,-4.30
2023-03-11T23:17:13.491Z,-4.26
2023-03-11T23:19:41.866Z,-4.27
2023-03-11T23:22:11.364Z,-4.25
2023-03-11T23:24:41.952Z,-4.20
2023-03-11T23:27:10.072Z,-4.21
2023-03-11T23:29:40.883Z,-4.22
2023-03-11T23:32:09.276Z,-4.28
2023-03-11T23:34:37.717Z,-4.30
2023-03-11T23:37:06.538Z,-4.28
2023-03-11T23:39:36.552Z,-4.34
2023-03-11T23:42:18.612Z,-4.35
2023-03-11T23:44:55.260Z,-4.40
2023-03-11T23:47:23.370Z,-4.44
2023-03-11T23:49:53.857Z,-4.48
2023-03-11T23:52:22.004Z,-4.49
2023-03-11T23:54:52.099Z,-4.54
2023-03-11T23:57:20.315Z,-4.60
2023-03-11T23:59:49.012Z,-4.61
